Time;durP1;ratioP1;P1;durP2;ratioP2;P2;SDS_P1;SDS_P2;PMS_P1;PMS_P2;Temp;Humidity;BMP_temperature;BMP_pressure;BME280_temperature;BME280_humidity;BME280_pressure;Samples;Min_cycle;Max_cycle;Signal;HPM_P1;HPM_P2
2022/11/14 00:01:49;;;;;;;2.20;1.38;;;;;;;2.61;100.00;102007.63;10519331;28;20044;-77
2022/11/14 00:07:09;;;;;;;1.73;1.17;;;;;;;2.59;100.00;102004.97;10529849;28;20126;-78
2022/11/14 00:12:29;;;;;;;1.25;1.15;;;;;;;2.59;100.00;102004.97;10531285;28;20047;-77
2022/11/14 00:17:49;;;;;;;1.65;0.80;;;;;;;2.61;100.00;102013.59;10531215;28;20041;-77
2022/11/14 00:23:09;;;;;;;3.57;1.17;;;;;;;2.47;100.00;102004.91;10489856;28;20052;-77
2022/11/14 00:28:29;;;;;;;1.47;1.37;;;;;;;2.48;100.00;102006.69;10540865;28;20457;-78
2022/11/14 00:33:50;;;;;;;0.75;0.68;;;;;;;2.33;100.00;101990.25;10545889;28;20278;-77
2022/11/14 00:39:13;;;;;;;0.10;0.10;;;;;;;2.31;100.00;101986.69;10546839;28;20052;-77
2022/11/14 00:44:33;;;;;;;0.93;0.93;;;;;;;2.25;100.00;101983.69;10546163;28;20495;-77
2022/11/14 00:49:54;;;;;;;3.45;2.60;;;;;;;2.21;100.00;101965.66;10531392;28;20048;-77
2022/11/14 00:55:13;;;;;;;2.37;1.43;;;;;;;2.20;100.00;101958.78;10546688;28;20048;-77
2022/11/14 01:00:34;;;;;;;3.58;1.15;;;;;;;2.13;100.00;101954.00;10546804;28;20048;-78
2022/11/14 01:05:55;;;;;;;5.50;2.33;;;;;;;2.21;100.00;101955.47;10545214;28;20495;-78
2022/11/14 01:11:18;;;;;;;2.05;1.85;;;;;;;2.00;100.00;101953.81;10546439;28;20052;-78
2022/11/14 01:17:04;;;;;;;1.52;1.13;;;;;;;2.05;100.00;101957.59;10554913;28;20028;-78
2022/11/14 01:22:24;;;;;;;1.75;1.58;;;;;;;1.90;100.00;101953.09;10533146;28;20049;-78
2022/11/14 01:27:44;;;;;;;2.08;1.85;;;;;;;1.79;100.00;101953.06;10516557;28;20044;-77
2022/11/14 01:33:05;;;;;;;2.00;1.67;;;;;;;1.73;100.00;101948.38;10526264;28;20084;-77
2022/11/14 01:38:25;;;;;;;2.90;1.92;;;;;;;1.64;100.00;101942.56;10545192;28;20044;-77
2022/11/14 01:43:46;;;;;;;1.23;1.02;;;;;;;1.61;100.00;101942.31;10503971;28;20040;-77
2022/11/14 01:49:19;;;;;;;2.25;1.88;;;;;;;1.51;100.00;101928.00;10546910;28;20048;-78
2022/11/14 01:54:48;;;;;;;0.90;0.35;;;;;;;1.45;100.00;101920.81;10546370;28;20411;-78
2022/11/14 02:00:11;;;;;;;1.55;1.45;;;;;;;1.43;100.00;101915.59;10546168;28;20048;-77
2022/11/14 02:05:31;;;;;;;18.98;1.00;;;;;;;1.30;100.00;101907.75;10492298;28;20504;-77
2022/11/14 02:10:51;;;;;;;0.52;0.40;;;;;;;1.20;100.00;101895.09;10520739;28;20474;-76
2022/11/14 02:16:11;;;;;;;2.60;2.33;;;;;;;1.17;100.00;101883.03;10509014;28;20123;-78
2022/11/14 02:21:31;;;;;;;0.47;0.45;;;;;;;1.23;100.00;101878.44;10549957;28;20071;-77
2022/11/14 02:26:51;;;;;;;1.03;0.93;;;;;;;1.40;100.00;101881.44;10552458;28;20075;-77
2022/11/14 02:32:12;;;;;;;3.45;1.73;;;;;;;1.36;100.00;101875.25;10554396;28;20410;-77
2022/11/14 02:37:32;;;;;;;1.58;1.20;;;;;;;1.25;100.00;101866.78;10552719;28;20048;-77
2022/11/14 02:42:52;;;;;;;0.45;0.45;;;;;;;1.05;100.00;101857.56;10551400;28;20044;-77
2022/11/14 02:48:12;;;;;;;0.70;0.60;;;;;;;1.22;100.00;101858.03;10535376;28;20048;-77
2022/11/14 02:53:33;;;;;;;3.58;0.68;;;;;;;1.16;100.00;101853.34;10553792;28;20051;-77
2022/11/14 02:58:53;;;;;;;1.67;1.43;;;;;;;0.95;100.00;101852.53;10559817;28;20040;-77
2022/11/14 03:04:13;;;;;;;2.28;1.27;;;;;;;0.95;100.00;101847.47;10563322;28;20044;-78
2022/11/14 03:09:33;;;;;;;1.75;0.77;;;;;;;0.97;100.00;101842.50;10533356;28;20043;-77
2022/11/14 03:14:53;;;;;;;1.67;0.95;;;;;;;0.88;100.00;101833.38;10571730;28;20051;-77
2022/11/14 03:20:14;;;;;;;1.65;1.55;;;;;;;1.00;100.00;101837.69;10521917;28;20064;-78
2022/11/14 03:25:34;;;;;;;1.08;1.00;;;;;;;0.84;100.00;101838.09;10539156;28;20040;-78
2022/11/14 03:30:56;;;;;;;2.70;1.55;;;;;;;0.94;100.00;101844.03;10565657;28;20048;-78
2022/11/14 03:36:16;;;;;;;1.20;1.13;;;;;;;0.98;100.00;101844.28;10597547;28;20039;-78
2022/11/14 03:41:36;;;;;;;0.70;0.57;;;;;;;1.05;100.00;101842.34;10557803;28;20055;-78
2022/11/14 03:46:56;;;;;;;3.58;1.90;;;;;;;1.01;100.00;101836.91;10563963;28;20048;-77
2022/11/14 03:52:16;;;;;;;1.43;1.13;;;;;;;0.80;100.00;101829.34;10554354;28;20055;-77
2022/11/14 03:57:36;;;;;;;0.73;0.67;;;;;;;0.73;100.00;101812.78;10571339;28;20036;-77
2022/11/14 04:02:57;;;;;;;1.77;1.03;;;;;;;0.60;100.00;101815.06;10568930;28;20286;-77
2022/11/14 04:08:17;;;;;;;;;;;;;;;0.53;100.00;101810.25;10575935;28;20048;-77
2022/11/14 04:13:37;;;;;;;0.45;0.43;;;;;;;0.44;100.00;101802.78;10581052;28;19920;-77
2022/11/14 04:18:57;;;;;;;0.20;0.20;;;;;;;0.59;100.00;101806.56;10577777;28;20044;-77
2022/11/14 04:24:17;;;;;;;1.42;1.00;;;;;;;0.59;100.00;101809.09;10578065;28;20429;-78
2022/11/14 04:29:37;;;;;;;1.27;0.98;;;;;;;0.51;100.00;101804.19;10580278;28;20044;-78
2022/11/14 04:34:57;;;;;;;1.48;0.98;;;;;;;0.40;100.00;101791.53;10582434;28;20071;-78
2022/11/14 04:40:18;;;;;;;1.17;0.68;;;;;;;0.35;100.00;101791.91;10582884;28;20048;-77
2022/11/14 04:45:38;;;;;;;1.40;0.87;;;;;;;0.06;100.00;101782.78;10584719;28;20040;-78
2022/11/14 04:50:58;;;;;;;2.37;1.67;;;;;;;0.24;100.00;101794.47;10585860;28;20246;-78
2022/11/14 04:56:21;;;;;;;0.43;0.43;;;;;;;0.28;100.00;101796.47;10570557;28;20306;-78
2022/11/14 05:01:41;;;;;;;1.25;0.68;;;;;;;0.28;100.00;101796.47;10570575;28;20048;-78
2022/11/14 05:07:02;;;;;;;1.38;0.65;;;;;;;0.17;100.00;101796.34;10570114;28;20048;-77
2022/11/14 05:12:22;;;;;;;0.95;0.95;;;;;;;0.17;100.00;101784.59;10582186;28;20052;-77
2022/11/14 05:17:42;;;;;;;1.38;0.90;;;;;;;0.03;100.00;101777.50;10559478;28;20040;-76
2022/11/14 05:23:03;;;;;;;1.42;0.57;;;;;;;0.17;100.00;101771.91;10545845;28;20055;-76
2022/11/14 05:28:23;;;;;;;0.30;0.30;;;;;;;0.12;100.00;101769.00;10537768;28;20115;-76
2022/11/14 05:33:44;;;;;;;1.05;0.40;;;;;;;0.13;100.00;101774.94;10549137;28;20044;-76
2022/11/14 05:39:04;;;;;;;0.98;0.45;;;;;;;0.13;100.00;101770.78;10530583;28;20072;-76
2022/11/14 05:44:24;;;;;;;1.23;1.10;;;;;;;-0.34;100.00;101758.47;10546431;28;20047;-76
2022/11/14 05:49:44;;;;;;;1.02;0.75;;;;;;;-0.21;100.00;101762.03;10542449;28;20051;-77
2022/11/14 05:55:06;;;;;;;1.98;1.48;;;;;;;-0.49;100.00;101752.13;10543933;28;20052;-76
2022/11/14 06:00:25;;;;;;;;;;;;;;;-0.36;100.00;101757.47;10544082;28;20048;-77
2022/11/14 06:05:46;;;;;;;1.55;0.45;;;;;;;-0.33;100.00;101750.09;10577516;28;19920;-77
2022/11/14 06:11:11;;;;;;;1.27;1.03;;;;;;;-0.23;100.00;101754.31;10531599;28;20052;-77
2022/11/14 06:16:32;;;;;;;0.45;0.45;;;;;;;-0.57;100.00;101743.88;10529647;28;20048;-77
2022/11/14 06:21:51;;;;;;;0.33;0.27;;;;;;;-0.52;100.00;101754.41;10544554;28;20051;-77
2022/11/14 06:27:12;;;;;;;5.32;2.40;;;;;;;-0.78;100.00;101745.47;10544348;28;20044;-77
2022/11/14 06:32:31;;;;;;;1.03;0.63;;;;;;;-0.32;100.00;101754.41;10530181;28;20056;-77
2022/11/14 06:37:52;;;;;;;2.90;1.30;;;;;;;-0.58;100.00;101753.88;10529415;28;20040;-77
2022/11/14 06:43:12;;;;;;;0.40;0.38;;;;;;;-0.65;100.00;101753.38;10542378;28;20044;-77
2022/11/14 06:48:32;;;;;;;0.97;0.67;;;;;;;-0.37;100.00;101759.84;10527162;28;20048;-78
2022/11/14 06:53:53;;;;;;;0.17;0.17;;;;;;;-0.15;100.00;101761.66;10543706;28;20270;-77
2022/11/14 06:59:13;;;;;;;0.43;0.43;;;;;;;-0.13;100.00;101766.09;10542078;28;20479;-77
2022/11/14 07:04:34;;;;;;;0.03;0.03;;;;;;;0.11;100.00;101771.41;10527511;28;20052;-76
2022/11/14 07:09:55;;;;;;;2.10;1.88;;;;;;;0.10;100.00;101773.03;10529020;28;20048;-77
2022/11/14 07:15:15;;;;;;;3.97;2.28;;;;;;;0.21;100.00;101779.00;10528802;28;20044;-77
2022/11/14 07:20:35;;;;;;;0.15;0.15;;;;;;;-0.10;100.00;101779.00;10526839;28;20078;-77
2022/11/14 07:25:59;;;;;;;1.73;1.23;;;;;;;0.18;100.00;101775.31;10543498;28;20048;-77
2022/11/14 07:31:20;;;;;;;0.57;0.57;;;;;;;0.39;100.00;101771.13;10541590;28;20055;-77
2022/11/14 07:36:40;;;;;;;0.50;0.15;;;;;;;0.46;100.00;101761.59;10539885;28;20051;-77
2022/11/14 07:42:00;;;;;;;2.95;2.50;;;;;;;0.72;100.00;101767.88;10544765;28;20052;-77
2022/11/14 07:47:20;;;;;;;0.28;0.28;;;;;;;0.86;100.00;101780.75;10528339;28;20045;-77
2022/11/14 07:52:41;;;;;;;1.27;0.50;;;;;;;1.02;100.00;101782.84;10544980;28;20047;-77
2022/11/14 07:58:04;;;;;;;0.77;0.55;;;;;;;1.18;100.00;101783.28;10554556;28;20040;-77
2022/11/14 08:03:24;;;;;;;2.28;1.55;;;;;;;1.46;100.00;101785.41;10549843;28;20044;-77
2022/11/14 08:08:44;;;;;;;1.15;1.05;;;;;;;1.95;100.00;101792.47;10580776;28;20044;-78
2022/11/14 08:14:06;;;;;;;0.65;0.65;;;;;;;2.20;100.00;101783.34;10571234;28;20092;-78
2022/11/14 08:19:26;;;;;;;0.15;0.15;;;;;;;2.19;100.00;101778.16;10542771;28;20095;-78
2022/11/14 08:24:46;;;;;;;0.88;0.55;;;;;;;2.28;100.00;101777.94;10562566;28;20126;-79
2022/11/14 08:30:18;;;;;;;0.10;0.10;;;;;;;2.54;100.00;101768.03;10562049;28;20496;-78
2022/11/14 08:36:06;;;;;;;3.20;0.65;;;;;;;2.65;100.00;101755.19;10537654;28;20040;-78
2022/11/14 08:41:26;;;;;;;2.75;1.48;;;;;;;2.80;100.00;101753.72;10511321;28;20048;-77
2022/11/14 08:46:46;;;;;;;2.00;0.52;;;;;;;2.91;100.00;101744.31;10509326;28;20048;-76
2022/11/14 08:52:06;;;;;;;0.63;0.63;;;;;;;3.05;100.00;101737.66;10495277;28;20442;-77
2022/11/14 08:57:33;;;;;;;2.42;1.75;;;;;;;3.17;100.00;101728.31;10508496;28;20478;-77
2022/11/14 09:02:53;;;;;;;1.30;1.03;;;;;;;3.37;100.00;101705.88;10507540;28;20411;-77
2022/11/14 09:08:15;;;;;;;0.80;0.80;;;;;;;3.48;100.00;101689.66;10548247;28;20052;-77
2022/11/14 09:13:35;;;;;;;1.27;0.73;;;;;;;3.65;100.00;101677.16;10518907;28;20048;-76
2022/11/14 09:18:55;;;;;;;1.97;1.23;;;;;;;3.89;100.00;101666.81;10545591;28;20036;-77
2022/11/14 09:24:15;;;;;;;3.20;2.03;;;;;;;4.24;100.00;101668.19;10529059;28;20400;-77
2022/11/14 09:29:36;;;;;;;2.72;1.85;;;;;;;4.31;100.00;101647.41;10544682;28;20040;-77
2022/11/14 09:34:56;;;;;;;2.72;1.27;;;;;;;4.51;100.00;101635.00;10529739;28;20511;-77
2022/11/14 09:40:20;;;;;;;1.50;1.25;;;;;;;4.67;100.00;101622.41;10543311;28;20052;-77
2022/11/14 09:45:47;;;;;;;1.45;1.13;;;;;;;4.92;100.00;101613.69;10543097;28;20040;-76
2022/11/14 09:51:27;;;;;;;5.53;2.78;;;;;;;5.19;100.00;101593.13;10519339;28;20048;-76
2022/11/14 09:56:48;;;;;;;2.47;1.93;;;;;;;5.36;100.00;101574.56;10485184;28;20040;-76
2022/11/14 10:02:27;;;;;;;2.53;1.60;;;;;;;5.72;100.00;101545.91;10520855;28;20055;-76
2022/11/14 10:08:03;;;;;;;5.72;1.48;;;;;;;6.01;100.00;101455.47;10541279;28;20123;-76
2022/11/14 10:13:48;;;;;;;3.90;2.45;;;;;;;6.77;100.00;101438.88;10542101;28;20550;-76
2022/11/14 10:20:00;;;;;;;0.38;0.35;;;;;;;7.66;100.00;101395.25;10530251;28;20048;-76
2022/11/14 10:25:40;;;;;;;1.80;1.15;;;;;;;7.52;100.00;101355.28;10517487;28;20040;-76
2022/11/14 10:31:20;;;;;;;5.28;1.33;;;;;;;8.42;100.00;101331.78;10526342;28;20036;-76
2022/11/14 10:37:03;;;;;;;2.22;1.27;;;;;;;8.54;100.00;101308.34;10540180;28;20036;-76
2022/11/14 10:42:38;;;;;;;3.00;2.22;;;;;;;9.02;100.00;101292.25;10497796;28;20141;-77
2022/11/14 10:48:09;;;;;;;0.40;0.40;;;;;;;8.93;100.00;101289.31;10562094;28;20119;-77
2022/11/14 10:53:48;;;;;;;2.20;1.83;;;;;;;9.14;100.00;101279.84;10525493;28;20048;-76
2022/11/14 10:59:08;;;;;;;1.17;0.90;;;;;;;9.55;100.00;101281.34;10524710;28;20040;-76
2022/11/14 11:04:31;;;;;;;1.15;1.05;;;;;;;9.82;100.00;101269.44;10514199;28;20445;-76
2022/11/14 11:15:40;;;;;;;2.95;1.23;;;;;;;10.69;100.00;101249.09;10539968;28;20036;-77
2022/11/14 11:21:11;;;;;;;2.75;1.75;;;;;;;10.06;100.00;101258.25;10539297;28;20040;-76
2022/11/14 11:26:32;;;;;;;1.17;0.68;;;;;;;10.27;100.00;101262.34;10522912;28;20048;-78
2022/11/14 11:31:53;;;;;;;;;;;;;;;9.57;100.00;101254.84;10533919;28;20495;-76
2022/11/14 11:37:17;;;;;;;;;;;;;;;8.74;100.00;101265.47;10536608;28;19920;-76
2022/11/14 11:42:46;;;;;;;2.25;1.23;;;;;;;8.68;100.00;101270.34;10511593;28;19920;-75
2022/11/14 11:48:36;;;;;;;6.10;1.80;;;;;;;8.55;100.00;101258.75;10528661;28;20490;-76
2022/11/14 11:54:06;;;;;;;3.28;2.17;;;;;;;8.31;100.00;101261.13;10533139;28;20403;-75
2022/11/14 11:59:47;;;;;;;2.88;2.28;;;;;;;8.24;100.00;101247.19;10544851;28;20051;-76
2022/11/14 12:05:15;;;;;;;2.83;2.08;;;;;;;8.37;100.00;101239.16;10520469;28;20051;-76
2022/11/14 12:10:40;;;;;;;0.85;0.70;;;;;;;8.15;100.00;101242.56;10535691;28;20041;-76
2022/11/14 12:16:18;;;;;;;3.10;1.98;;;;;;;8.19;100.00;101239.31;10516529;28;20039;-75
2022/11/14 12:21:48;;;;;;;2.08;1.73;;;;;;;8.05;100.00;101235.28;10523371;28;20122;-75
2022/11/14 12:27:50;;;;;;;3.25;1.17;;;;;;;8.06;100.00;101221.66;10525028;28;20040;-75
2022/11/14 12:33:51;;;;;;;5.10;1.42;;;;;;;8.11;100.00;101207.31;10531612;28;20056;-75
2022/11/14 12:39:25;;;;;;;0.75;0.73;;;;;;;8.09;100.00;101193.53;10533563;28;20056;-76
2022/11/14 12:44:47;;;;;;;2.05;1.48;;;;;;;8.16;100.00;101181.84;10529811;28;20040;-76
2022/11/14 12:50:38;;;;;;;0.60;0.55;;;;;;;8.03;100.00;101185.59;10513982;28;20044;-76
2022/11/14 12:56:14;;;;;;;1.23;1.13;;;;;;;8.05;100.00;101173.72;10562090;28;20080;-77
2022/11/14 13:02:25;;;;;;;1.98;1.08;;;;;;;8.03;100.00;101170.19;10531511;28;20501;-76
2022/11/14 13:08:18;;;;;;;5.05;1.05;;;;;;;7.80;100.00;101172.69;10535738;28;20044;-77
2022/11/14 13:25:24;;;;;;;1.25;0.68;;;;;;;7.87;100.00;101184.09;10533438;28;20044;-76
2022/11/14 13:31:03;;;;;;;;;;;;;;;7.82;100.00;101177.91;10525389;28;20044;-76
2022/11/14 13:36:58;;;;;;;0.85;0.73;;;;;;;7.85;100.00;101181.47;10532040;28;19927;-76
2022/11/14 13:42:31;;;;;;;0.45;0.45;;;;;;;7.81;100.00;101169.31;10522582;28;20507;-76
2022/11/14 13:48:06;;;;;;;0.85;0.70;;;;;;;7.87;100.00;101171.28;10542203;28;20483;-76
2022/11/14 13:53:28;;;;;;;2.05;1.08;;;;;;;7.97;100.00;101181.06;10540200;28;20040;-75
2022/11/14 13:58:58;;;;;;;2.50;0.47;;;;;;;7.97;100.00;101180.22;10526092;28;20052;-76
2022/11/14 14:04:49;;;;;;;1.60;1.00;;;;;;;7.97;100.00;101180.22;10541000;28;20048;-76
2022/11/14 14:10:28;;;;;;;0.93;0.73;;;;;;;7.92;100.00;101188.63;10511185;28;20087;-76
2022/11/14 14:16:01;;;;;;;0.50;0.40;;;;;;;7.99;100.00;101206.81;10526381;28;20044;-76
2022/11/14 14:21:30;;;;;;;1.48;0.82;;;;;;;7.94;100.00;101207.50;10540573;28;20048;-75
2022/11/14 14:27:12;;;;;;;0.65;0.50;;;;;;;8.01;100.00;101188.09;10517600;28;20048;-75
2022/11/14 14:32:32;;;;;;;1.40;0.43;;;;;;;8.07;100.00;101182.34;10524420;28;20470;-75
2022/11/14 14:37:54;;;;;;;0.15;0.15;;;;;;;8.15;100.00;101180.97;10528061;28;20168;-75
2022/11/14 14:43:31;;;;;;;0.52;0.52;;;;;;;8.09;100.00;101168.75;10519578;28;20044;-74
2022/11/14 14:48:52;;;;;;;0.25;0.25;;;;;;;8.13;100.00;101162.06;10508441;28;20135;-76
2022/11/14 14:54:28;;;;;;;7.72;1.52;;;;;;;8.20;100.00;101143.53;10520914;28;20128;-76
2022/11/14 15:00:06;;;;;;;0.60;0.60;;;;;;;8.17;100.00;101140.81;10516862;28;20032;-76
2022/11/14 15:05:28;;;;;;;0.32;0.32;;;;;;;8.11;100.00;101143.16;10526317;28;20403;-76
2022/11/14 15:10:49;;;;;;;0.68;0.40;;;;;;;8.02;100.00;101153.03;10536408;28;20403;-76
2022/11/14 15:16:10;;;;;;;0.95;0.80;;;;;;;7.89;100.00;101167.94;10501097;28;20407;-76
2022/11/14 15:21:30;;;;;;;1.02;0.57;;;;;;;8.03;100.00;101175.31;10554166;28;20044;-76
2022/11/14 15:26:53;;;;;;;0.75;0.68;;;;;;;8.00;100.00;101173.53;10511413;28;20049;-76
2022/11/14 15:32:24;;;;;;;0.38;0.30;;;;;;;7.88;100.00;101170.47;10528501;28;20060;-76
2022/11/14 15:38:17;;;;;;;1.65;1.17;;;;;;;8.00;100.00;101167.53;10501534;28;20040;-76
2022/11/14 15:44:04;;;;;;;0.57;0.57;;;;;;;7.99;100.00;101163.19;10526975;28;20574;-76
2022/11/14 15:49:26;;;;;;;0.55;0.55;;;;;;;7.98;100.00;101152.03;10517369;28;20052;-76
2022/11/14 15:54:46;;;;;;;0.75;0.68;;;;;;;8.01;100.00;101151.28;10511558;28;20048;-76
2022/11/14 16:00:10;;;;;;;0.32;0.32;;;;;;;7.96;100.00;101151.13;10520240;28;20044;-76
2022/11/14 16:05:33;;;;;;;0.98;0.63;;;;;;;7.87;100.00;101149.03;10532965;28;20044;-76
2022/11/14 16:11:01;;;;;;;0.70;0.40;;;;;;;7.82;100.00;101159.94;10541983;28;20048;-75
2022/11/14 16:16:21;;;;;;;1.58;0.80;;;;;;;7.80;100.00;101162.44;10537424;28;20052;-75
2022/11/14 16:21:41;;;;;;;3.03;1.67;;;;;;;7.83;100.00;101167.69;10531261;28;20048;-75
2022/11/14 16:27:02;;;;;;;0.63;0.52;;;;;;;7.84;100.00;101161.75;10541015;28;20051;-75
2022/11/14 16:32:25;;;;;;;3.65;1.70;;;;;;;7.86;100.00;101162.69;10533258;28;20084;-75
2022/11/14 16:37:46;;;;;;;2.47;2.17;;;;;;;7.84;100.00;101164.31;10524844;28;20036;-75
2022/11/14 16:43:12;;;;;;;4.03;2.63;;;;;;;7.88;100.00;101162.75;10534560;28;20048;-75
2022/11/14 16:48:32;;;;;;;4.82;4.00;;;;;;;7.85;100.00;101157.50;10541158;28;20039;-76
2022/11/14 16:53:54;;;;;;;3.10;2.17;;;;;;;7.86;100.00;101157.53;10529885;28;20047;-76
2022/11/14 16:59:14;;;;;;;1.65;1.42;;;;;;;7.84;100.00;101153.16;10544305;28;20048;-75
2022/11/14 17:04:35;;;;;;;5.95;1.17;;;;;;;7.89;100.00;101142.28;10514829;28;20122;-76
2022/11/14 17:09:55;;;;;;;0.80;0.60;;;;;;;7.80;100.00;101136.78;10488044;28;20048;-76
2022/11/14 17:15:15;;;;;;;4.07;1.35;;;;;;;7.82;100.00;101134.31;10500653;28;20123;-76
2022/11/14 17:20:37;;;;;;;0.55;0.38;;;;;;;7.78;100.00;101138.44;10543611;28;20040;-75
2022/11/14 17:26:07;;;;;;;0.43;0.38;;;;;;;7.70;100.00;101132.09;10535117;28;20047;-75
2022/11/14 17:31:56;;;;;;;0.65;0.63;;;;;;;7.73;100.00;101124.53;10528283;28;20499;-75
2022/11/14 17:37:16;;;;;;;1.70;0.63;;;;;;;7.70;100.00;101125.28;10543149;28;20041;-76
2022/11/14 17:42:36;;;;;;;3.67;1.88;;;;;;;7.63;100.00;101121.56;10515083;28;20483;-76
2022/11/14 17:47:56;;;;;;;0.30;0.30;;;;;;;7.63;100.00;101115.56;10543552;28;20040;-75
2022/11/14 17:53:17;;;;;;;0.00;0.00;;;;;;;7.56;100.00;101109.31;10542366;28;20056;-75
2022/11/14 17:58:37;;;;;;;1.80;0.80;;;;;;;7.58;100.00;101115.38;10542215;28;20437;-76
2022/11/14 18:03:57;;;;;;;0.82;0.80;;;;;;;7.53;100.00;101101.50;10542186;28;20040;-75
2022/11/14 18:09:25;;;;;;;1.33;1.23;;;;;;;7.60;100.00;101111.19;10542299;28;20043;-75
2022/11/14 18:14:45;;;;;;;0.25;0.22;;;;;;;7.56;100.00;101106.75;10526534;28;20119;-75
2022/11/14 18:20:36;;;;;;;2.15;1.23;;;;;;;7.38;100.00;101121.38;10527891;28;20040;-76
2022/11/14 18:25:58;;;;;;;1.10;0.47;;;;;;;7.43;100.00;101125.00;10527698;28;20123;-75
2022/11/14 18:31:22;;;;;;;1.95;0.95;;;;;;;7.37;100.00;101122.19;10522417;28;20040;-75
2022/11/14 18:36:47;;;;;;;0.45;0.45;;;;;;;7.46;100.00;101115.75;10533307;28;20040;-75
2022/11/14 18:42:35;;;;;;;0.70;0.45;;;;;;;7.49;100.00;101119.25;10539438;28;20040;-74
2022/11/14 18:47:55;;;;;;;1.50;0.95;;;;;;;7.46;100.00;101114.88;10514212;28;20415;-75
2022/11/14 18:53:16;;;;;;;1.17;1.05;;;;;;;7.41;100.00;101112.13;10540498;28;20158;-76
2022/11/14 18:58:40;;;;;;;3.60;0.85;;;;;;;7.39;100.00;101115.44;10558310;28;20047;-76
2022/11/14 19:04:03;;;;;;;0.95;0.90;;;;;;;7.43;100.00;101117.31;10540494;28;20480;-76
2022/11/14 19:09:27;;;;;;;1.45;0.95;;;;;;;7.44;100.00;101116.50;10534642;28;20487;-75
2022/11/14 19:14:52;;;;;;;1.17;0.90;;;;;;;7.40;100.00;101125.75;10525579;28;20123;-75
2022/11/14 19:20:13;;;;;;;0.90;0.80;;;;;;;7.41;100.00;101118.94;10518775;28;20044;-76
2022/11/14 19:25:34;;;;;;;1.40;1.20;;;;;;;7.42;100.00;101133.50;10523789;28;20056;-75
2022/11/14 19:31:05;;;;;;;0.55;0.55;;;;;;;7.41;100.00;101137.75;10520814;28;20078;-76
2022/11/14 19:36:26;;;;;;;2.47;1.58;;;;;;;7.39;100.00;101143.63;10531354;28;20044;-75
2022/11/14 19:42:06;;;;;;;1.42;0.85;;;;;;;7.49;100.00;101132.94;10524168;28;20044;-75
2022/11/14 19:47:27;;;;;;;1.70;1.48;;;;;;;7.51;100.00;101123.63;10529036;28;20064;-75
2022/11/14 19:52:47;;;;;;;1.50;0.75;;;;;;;7.48;100.00;101118.41;10528931;28;20036;-75
2022/11/14 19:58:08;;;;;;;3.25;0.73;;;;;;;7.46;100.00;101127.69;10505488;28;20048;-75
2022/11/14 20:03:28;;;;;;;;;;;;;;;7.35;100.00;101127.25;10517732;28;20040;-75
2022/11/14 20:08:57;;;;;;;4.78;0.70;;;;;;;7.12;100.00;101119.44;10529845;28;19920;-76
2022/11/14 20:14:17;;;;;;;1.45;0.85;;;;;;;6.79;100.00;101129.06;10524992;28;20044;-76
2022/11/14 20:19:37;;;;;;;;;;;;;;;6.38;100.00;101148.53;10534011;28;20119;-75
2022/11/14 20:24:57;;;;;;;0.70;0.70;;;;;;;6.37;100.00;101159.59;10545852;28;19924;-76
2022/11/14 20:30:17;;;;;;;6.20;1.92;;;;;;;5.99;100.00;101173.16;10545277;28;20040;-76
2022/11/14 20:35:37;;;;;;;1.77;1.38;;;;;;;5.85;100.00;101169.00;10518747;28;20060;-76
2022/11/14 20:40:59;;;;;;;3.08;1.73;;;;;;;6.03;100.00;101169.09;10541298;28;20086;-76
2022/11/14 20:46:22;;;;;;;1.42;1.17;;;;;;;5.87;100.00;101169.97;10524109;28;20052;-76
2022/11/14 20:51:42;;;;;;;7.20;1.80;;;;;;;5.95;100.00;101167.78;10520348;28;20466;-76
2022/11/14 20:57:03;;;;;;;0.40;0.40;;;;;;;5.83;100.00;101165.50;10538361;28;20688;-76
2022/11/14 21:02:23;;;;;;;0.63;0.52;;;;;;;5.81;100.00;101164.53;10542602;28;20036;-76
2022/11/14 21:07:43;;;;;;;0.30;0.30;;;;;;;5.72;100.00;101167.53;10543901;28;20542;-76
2022/11/14 21:19:10;;;;;;;0.40;0.40;;;;;;;5.53;100.00;101171.72;10535848;28;20040;-76
2022/11/14 21:24:30;;;;;;;2.47;1.13;;;;;;;5.51;100.00;101167.31;10540703;28;20079;-76
2022/11/14 21:30:03;;;;;;;1.67;0.55;;;;;;;5.42;100.00;101172.84;10533925;28;20041;-76
2022/11/14 21:35:23;;;;;;;1.33;0.82;;;;;;;5.42;100.00;101171.97;10537419;28;20048;-75
2022/11/14 21:40:51;;;;;;;1.95;1.25;;;;;;;5.47;100.00;101180.75;10540312;28;20043;-76
2022/11/14 21:46:16;;;;;;;1.42;1.13;;;;;;;5.55;100.00;101182.91;10549965;28;20052;-76
2022/11/14 21:51:36;;;;;;;1.45;0.60;;;;;;;5.69;100.00;101177.59;10536558;28;20075;-76
2022/11/14 21:56:57;;;;;;;3.20;1.13;;;;;;;5.65;100.00;101168.91;10519354;28;20446;-76
2022/11/14 22:07:56;;;;;;;0.63;0.60;;;;;;;5.85;100.00;101179.22;10527978;28;20495;-76
2022/11/14 22:13:16;;;;;;;1.20;0.63;;;;;;;5.91;100.00;101179.56;10498495;28;20052;-76
2022/11/14 22:18:36;;;;;;;2.55;1.25;;;;;;;6.02;100.00;101162.22;10537681;28;20430;-76
2022/11/14 22:24:07;;;;;;;1.48;1.30;;;;;;;6.09;100.00;101159.16;10528496;28;20052;-76
2022/11/14 22:29:27;;;;;;;1.35;1.25;;;;;;;6.19;100.00;101156.19;10511953;28;20044;-76
2022/11/14 22:34:47;;;;;;;3.20;1.25;;;;;;;6.29;100.00;101144.72;10528521;28;20115;-76
2022/11/14 22:40:08;;;;;;;1.47;0.77;;;;;;;6.30;100.00;101138.81;10540080;28;20044;-76
2022/11/14 22:45:28;;;;;;;1.05;0.73;;;;;;;6.36;100.00;101133.09;10518689;28;20040;-76
2022/11/14 22:51:03;;;;;;;0.20;0.20;;;;;;;6.42;100.00;101122.28;10529550;28;20044;-77
2022/11/14 22:56:26;;;;;;;1.77;0.52;;;;;;;6.43;100.00;101124.03;10519824;28;20126;-76
2022/11/14 23:01:46;;;;;;;1.95;1.08;;;;;;;6.54;100.00;101127.09;10519568;28;20044;-76
2022/11/14 23:07:06;;;;;;;1.50;1.35;;;;;;;6.56;100.00;101123.78;10522243;28;20056;-77
2022/11/14 23:12:27;;;;;;;1.37;0.63;;;;;;;6.62;100.00;101118.94;10529515;28;20044;-76
2022/11/14 23:17:47;;;;;;;1.85;1.17;;;;;;;6.58;100.00;101128.97;10536199;28;20048;-77
2022/11/14 23:23:07;;;;;;;1.10;0.90;;;;;;;6.48;100.00;101143.91;10541790;28;20043;-76
2022/11/14 23:28:29;;;;;;;1.50;1.10;;;;;;;6.49;100.00;101155.91;10549668;28;20087;-76
2022/11/14 23:33:52;;;;;;;0.77;0.75;;;;;;;6.59;100.00;101167.44;10550513;28;20052;-77
2022/11/14 23:39:12;;;;;;;1.27;1.17;;;;;;;6.61;100.00;101252.88;10534263;28;20119;-77
2022/11/14 23:44:32;;;;;;;1.17;0.88;;;;;;;6.67;100.00;101258.28;10536186;28;20049;-77
2022/11/14 23:49:52;;;;;;;1.80;1.70;;;;;;;6.74;100.00;101256.03;10546405;28;20043;-76
2022/11/14 23:55:12;;;;;;;1.30;0.95;;;;;;;6.80;100.00;101264.00;10540893;28;20044;-77
